sensor_id;sensor_type;location;lat;lon;timestamp;temperature;humidity
7461;DHT22;6757;52.258;12.840;2022-10-31T00:00:30;9.20;99.90
7461;DHT22;6757;52.258;12.840;2022-10-31T00:02:57;9.10;99.90
7461;DHT22;6757;52.258;12.840;2022-10-31T00:05:24;9.10;99.90
7461;DHT22;6757;52.258;12.840;2022-10-31T00:07:53;9.10;99.90
7461;DHT22;6757;52.258;12.840;2022-10-31T00:10:20;9.00;99.90
7461;DHT22;6757;52.258;12.840;2022-10-31T00:12:47;9.10;99.90
7461;DHT22;6757;52.258;12.840;2022-10-31T00:15:14;9.00;99.90
7461;DHT22;6757;52.258;12.840;2022-10-31T00:17:41;9.00;99.90
7461;DHT22;6757;52.258;12.840;2022-10-31T00:20:08;9.00;99.90
7461;DHT22;6757;52.258;12.840;2022-10-31T00:22:35;9.00;99.90
7461;DHT22;6757;52.258;12.840;2022-10-31T00:25:04;9.00;99.90
7461;DHT22;6757;52.258;12.840;2022-10-31T00:27:31;9.00;99.90
7461;DHT22;6757;52.258;12.840;2022-10-31T00:29:58;8.90;99.90
7461;DHT22;6757;52.258;12.840;2022-10-31T00:32:25;8.90;99.90
7461;DHT22;6757;52.258;12.840;2022-10-31T00:34:51;8.90;99.90
7461;DHT22;6757;52.258;12.840;2022-10-31T00:37:18;8.90;99.90
7461;DHT22;6757;52.258;12.840;2022-10-31T00:39:45;8.90;99.90
7461;DHT22;6757;52.258;12.840;2022-10-31T00:42:15;8.90;99.90
7461;DHT22;6757;52.258;12.840;2022-10-31T00:44:45;8.90;99.90
7461;DHT22;6757;52.258;12.840;2022-10-31T00:47:12;8.80;99.90
7461;DHT22;6757;52.258;12.840;2022-10-31T00:49:39;8.80;99.90
7461;DHT22;6757;52.258;12.840;2022-10-31T00:52:06;8.80;99.90
7461;DHT22;6757;52.258;12.840;2022-10-31T00:54:33;8.80;99.90
7461;DHT22;6757;52.258;12.840;2022-10-31T00:56:59;8.80;99.90
7461;DHT22;6757;52.258;12.840;2022-10-31T00:59:28;8.80;99.90
7461;DHT22;6757;52.258;12.840;2022-10-31T01:01:54;8.80;99.90
7461;DHT22;6757;52.258;12.840;2022-10-31T01:04:21;8.80;99.90
7461;DHT22;6757;52.258;12.840;2022-10-31T01:06:48;8.80;99.90
7461;DHT22;6757;52.258;12.840;2022-10-31T01:09:15;8.80;99.90
7461;DHT22;6757;52.258;12.840;2022-10-31T01:11:42;8.80;99.90
7461;DHT22;6757;52.258;12.840;2022-10-31T01:14:09;8.80;99.90
7461;DHT22;6757;52.258;12.840;2022-10-31T01:16:38;8.80;99.90
7461;DHT22;6757;52.258;12.840;2022-10-31T01:19:04;8.80;99.90
7461;DHT22;6757;52.258;12.840;2022-10-31T01:21:31;8.80;99.90
7461;DHT22;6757;52.258;12.840;2022-10-31T01:23:59;8.80;99.90
7461;DHT22;6757;52.258;12.840;2022-10-31T01:26:28;8.80;99.90
7461;DHT22;6757;52.258;12.840;2022-10-31T01:28:58;8.80;99.90
7461;DHT22;6757;52.258;12.840;2022-10-31T01:31:28;8.80;99.90
7461;DHT22;6757;52.258;12.840;2022-10-31T01:33:58;8.80;99.90
7461;DHT22;6757;52.258;12.840;2022-10-31T01:36:27;8.80;99.90
7461;DHT22;6757;52.258;12.840;2022-10-31T01:38:57;8.80;99.90
7461;DHT22;6757;52.258;12.840;2022-10-31T01:41:27;8.80;99.90
7461;DHT22;6757;52.258;12.840;2022-10-31T01:43:57;8.80;99.90
7461;DHT22;6757;52.258;12.840;2022-10-31T01:46:27;8.80;99.90
7461;DHT22;6757;52.258;12.840;2022-10-31T01:49:00;8.80;99.90
7461;DHT22;6757;52.258;12.840;2022-10-31T01:51:30;8.70;99.90
7461;DHT22;6757;52.258;12.840;2022-10-31T01:54:02;8.80;99.90
7461;DHT22;6757;52.258;12.840;2022-10-31T01:56:32;8.70;99.90
7461;DHT22;6757;52.258;12.840;2022-10-31T01:59:02;8.70;99.90
7461;DHT22;6757;52.258;12.840;2022-10-31T02:01:31;8.70;99.90
7461;DHT22;6757;52.258;12.840;2022-10-31T02:04:00;8.70;99.90
7461;DHT22;6757;52.258;12.840;2022-10-31T02:06:32;8.70;99.90
7461;DHT22;6757;52.258;12.840;2022-10-31T02:09:04;8.70;99.90
7461;DHT22;6757;52.258;12.840;2022-10-31T02:11:33;8.70;99.90
7461;DHT22;6757;52.258;12.840;2022-10-31T02:14:02;8.70;99.90
7461;DHT22;6757;52.258;12.840;2022-10-31T02:16:29;8.60;99.90
7461;DHT22;6757;52.258;12.840;2022-10-31T02:18:56;8.60;99.90
7461;DHT22;6757;52.258;12.840;2022-10-31T02:21:30;8.60;99.90
7461;DHT22;6757;52.258;12.840;2022-10-31T02:24:25;8.60;99.90
7461;DHT22;6757;52.258;12.840;2022-10-31T02:27:16;8.60;99.90
7461;DHT22;6757;52.258;12.840;2022-10-31T02:30:15;8.60;99.90
7461;DHT22;6757;52.258;12.840;2022-10-31T02:32:58;8.50;99.90
7461;DHT22;6757;52.258;12.840;2022-10-31T02:35:41;8.50;99.90
7461;DHT22;6757;52.258;12.840;2022-10-31T02:38:23;8.50;99.90
7461;DHT22;6757;52.258;12.840;2022-10-31T02:40:59;8.50;99.90
7461;DHT22;6757;52.258;12.840;2022-10-31T02:46:19;8.40;99.90
7461;DHT22;6757;52.258;12.840;2022-10-31T02:48:55;8.40;99.90
7461;DHT22;6757;52.258;12.840;2022-10-31T02:51:24;8.40;99.90
7461;DHT22;6757;52.258;12.840;2022-10-31T02:53:51;8.40;99.90
7461;DHT22;6757;52.258;12.840;2022-10-31T02:56:19;8.40;99.90
7461;DHT22;6757;52.258;12.840;2022-10-31T02:58:49;8.30;99.90
7461;DHT22;6757;52.258;12.840;2022-10-31T03:01:20;8.30;99.90
7461;DHT22;6757;52.258;12.840;2022-10-31T03:04:21;8.30;99.90
7461;DHT22;6757;52.258;12.840;2022-10-31T03:06:58;8.30;99.90
7461;DHT22;6757;52.258;12.840;2022-10-31T03:09:32;8.30;99.90
7461;DHT22;6757;52.258;12.840;2022-10-31T03:12:07;8.30;99.90
7461;DHT22;6757;52.258;12.840;2022-10-31T03:14:40;8.20;99.90
7461;DHT22;6757;52.258;12.840;2022-10-31T03:17:13;8.20;99.90
7461;DHT22;6757;52.258;12.840;2022-10-31T03:19:46;8.20;99.90
7461;DHT22;6757;52.258;12.840;2022-10-31T03:22:17;8.20;99.90
7461;DHT22;6757;52.258;12.840;2022-10-31T03:24:47;8.20;99.90
7461;DHT22;6757;52.258;12.840;2022-10-31T03:27:17;8.10;99.90
7461;DHT22;6757;52.258;12.840;2022-10-31T03:29:48;8.20;99.90
7461;DHT22;6757;52.258;12.840;2022-10-31T03:32:18;8.10;99.90
7461;DHT22;6757;52.258;12.840;2022-10-31T03:34:48;8.10;99.90
7461;DHT22;6757;52.258;12.840;2022-10-31T03:37:18;8.10;99.90
7461;DHT22;6757;52.258;12.840;2022-10-31T03:39:47;8.10;99.90
7461;DHT22;6757;52.258;12.840;2022-10-31T03:42:17;8.10;99.90
7461;DHT22;6757;52.258;12.840;2022-10-31T03:44:48;8.00;99.90
7461;DHT22;6757;52.258;12.840;2022-10-31T03:47:18;8.00;99.90
7461;DHT22;6757;52.258;12.840;2022-10-31T03:49:45;8.00;99.90
7461;DHT22;6757;52.258;12.840;2022-10-31T03:52:19;8.00;99.90
7461;DHT22;6757;52.258;12.840;2022-10-31T03:54:54;8.00;99.90
7461;DHT22;6757;52.258;12.840;2022-10-31T03:57:26;8.00;99.90
7461;DHT22;6757;52.258;12.840;2022-10-31T04:00:00;8.00;99.90
7461;DHT22;6757;52.258;12.840;2022-10-31T04:02:32;8.00;99.90
7461;DHT22;6757;52.258;12.840;2022-10-31T04:05:02;8.00;99.90
7461;DHT22;6757;52.258;12.840;2022-10-31T04:07:34;7.90;99.90
7461;DHT22;6757;52.258;12.840;2022-10-31T04:10:07;7.90;99.90
7461;DHT22;6757;52.258;12.840;2022-10-31T04:12:38;7.90;99.90
7461;DHT22;6757;52.258;12.840;2022-10-31T04:15:06;7.90;99.90
7461;DHT22;6757;52.258;12.840;2022-10-31T04:17:37;7.90;99.90
7461;DHT22;6757;52.258;12.840;2022-10-31T04:20:07;7.90;99.90
7461;DHT22;6757;52.258;12.840;2022-10-31T04:22:35;7.90;99.90
7461;DHT22;6757;52.258;12.840;2022-10-31T04:25:03;7.80;99.90
7461;DHT22;6757;52.258;12.840;2022-10-31T04:27:30;7.80;99.90
7461;DHT22;6757;52.258;12.840;2022-10-31T04:29:57;7.80;99.90
7461;DHT22;6757;52.258;12.840;2022-10-31T04:32:25;7.80;99.90
7461;DHT22;6757;52.258;12.840;2022-10-31T04:34:52;7.80;99.90
7461;DHT22;6757;52.258;12.840;2022-10-31T04:37:19;7.80;99.90
7461;DHT22;6757;52.258;12.840;2022-10-31T04:39:47;7.80;99.90
7461;DHT22;6757;52.258;12.840;2022-10-31T04:42:14;7.80;99.90
7461;DHT22;6757;52.258;12.840;2022-10-31T04:44:40;7.80;99.90
7461;DHT22;6757;52.258;12.840;2022-10-31T04:47:07;7.80;99.90
7461;DHT22;6757;52.258;12.840;2022-10-31T04:49:34;7.80;99.90
7461;DHT22;6757;52.258;12.840;2022-10-31T04:52:01;7.80;99.90
7461;DHT22;6757;52.258;12.840;2022-10-31T04:54:28;7.80;99.90
7461;DHT22;6757;52.258;12.840;2022-10-31T04:56:56;7.80;99.90
7461;DHT22;6757;52.258;12.840;2022-10-31T04:59:23;7.70;99.90
7461;DHT22;6757;52.258;12.840;2022-10-31T05:01:50;7.70;99.90
7461;DHT22;6757;52.258;12.840;2022-10-31T05:04:16;7.80;99.90
7461;DHT22;6757;52.258;12.840;2022-10-31T05:06:43;7.80;99.90
7461;DHT22;6757;52.258;12.840;2022-10-31T05:09:10;7.80;99.90
7461;DHT22;6757;52.258;12.840;2022-10-31T05:11:37;7.80;99.90
7461;DHT22;6757;52.258;12.840;2022-10-31T05:14:05;7.80;99.90
7461;DHT22;6757;52.258;12.840;2022-10-31T05:16:32;7.80;99.90
7461;DHT22;6757;52.258;12.840;2022-10-31T05:18:59;7.80;99.90
7461;DHT22;6757;52.258;12.840;2022-10-31T05:21:26;7.80;99.90
7461;DHT22;6757;52.258;12.840;2022-10-31T05:23:53;7.80;99.90
7461;DHT22;6757;52.258;12.840;2022-10-31T05:26:19;7.80;99.90
7461;DHT22;6757;52.258;12.840;2022-10-31T05:28:46;7.80;99.90
7461;DHT22;6757;52.258;12.840;2022-10-31T05:31:15;7.80;99.90
7461;DHT22;6757;52.258;12.840;2022-10-31T05:33:41;7.80;99.90
7461;DHT22;6757;52.258;12.840;2022-10-31T05:36:08;7.80;99.90
7461;DHT22;6757;52.258;12.840;2022-10-31T05:38:35;7.80;99.90
7461;DHT22;6757;52.258;12.840;2022-10-31T05:41:02;7.80;99.90
7461;DHT22;6757;52.258;12.840;2022-10-31T05:43:29;7.80;99.90
7461;DHT22;6757;52.258;12.840;2022-10-31T05:45:56;7.80;99.90
7461;DHT22;6757;52.258;12.840;2022-10-31T05:48:24;7.80;99.90
7461;DHT22;6757;52.258;12.840;2022-10-31T05:50:51;7.80;99.90
7461;DHT22;6757;52.258;12.840;2022-10-31T05:53:18;7.80;99.90
7461;DHT22;6757;52.258;12.840;2022-10-31T05:55:45;7.80;99.90
7461;DHT22;6757;52.258;12.840;2022-10-31T05:58:12;7.80;99.90
7461;DHT22;6757;52.258;12.840;2022-10-31T06:00:39;7.80;99.90
7461;DHT22;6757;52.258;12.840;2022-10-31T06:03:08;7.80;99.90
7461;DHT22;6757;52.258;12.840;2022-10-31T06:05:36;7.80;99.90
7461;DHT22;6757;52.258;12.840;2022-10-31T06:08:03;7.80;99.90
7461;DHT22;6757;52.258;12.840;2022-10-31T06:10:31;7.80;99.90
7461;DHT22;6757;52.258;12.840;2022-10-31T06:12:58;7.80;99.90
7461;DHT22;6757;52.258;12.840;2022-10-31T06:15:24;7.80;99.90
7461;DHT22;6757;52.258;12.840;2022-10-31T06:17:59;7.90;99.90
7461;DHT22;6757;52.258;12.840;2022-10-31T06:20:26;7.90;99.90
7461;DHT22;6757;52.258;12.840;2022-10-31T06:22:55;7.90;99.90
7461;DHT22;6757;52.258;12.840;2022-10-31T06:25:21;7.90;99.90
7461;DHT22;6757;52.258;12.840;2022-10-31T06:27:48;7.90;99.90
7461;DHT22;6757;52.258;12.840;2022-10-31T06:30:15;7.90;99.90
7461;DHT22;6757;52.258;12.840;2022-10-31T06:32:42;7.90;99.90
7461;DHT22;6757;52.258;12.840;2022-10-31T06:35:09;7.90;99.90
7461;DHT22;6757;52.258;12.840;2022-10-31T06:37:37;8.00;99.90
7461;DHT22;6757;52.258;12.840;2022-10-31T06:40:06;8.00;99.90
7461;DHT22;6757;52.258;12.840;2022-10-31T06:42:33;8.00;99.90
7461;DHT22;6757;52.258;12.840;2022-10-31T06:45:00;8.00;99.90
7461;DHT22;6757;52.258;12.840;2022-10-31T06:47:27;8.10;99.90
7461;DHT22;6757;52.258;12.840;2022-10-31T06:49:54;8.10;99.90
7461;DHT22;6757;52.258;12.840;2022-10-31T06:52:21;8.10;99.90
7461;DHT22;6757;52.258;12.840;2022-10-31T06:54:49;8.20;99.90
7461;DHT22;6757;52.258;12.840;2022-10-31T06:57:17;8.20;99.90
7461;DHT22;6757;52.258;12.840;2022-10-31T06:59:44;8.20;99.90
7461;DHT22;6757;52.258;12.840;2022-10-31T07:02:13;8.30;99.90
7461;DHT22;6757;52.258;12.840;2022-10-31T07:04:40;8.30;99.90
7461;DHT22;6757;52.258;12.840;2022-10-31T07:07:07;8.30;99.90
7461;DHT22;6757;52.258;12.840;2022-10-31T07:09:34;8.30;99.90
7461;DHT22;6757;52.258;12.840;2022-10-31T07:12:01;8.30;99.90
7461;DHT22;6757;52.258;12.840;2022-10-31T07:14:29;8.40;99.90
7461;DHT22;6757;52.258;12.840;2022-10-31T07:16:56;8.40;99.90
7461;DHT22;6757;52.258;12.840;2022-10-31T07:19:22;8.40;99.90
7461;DHT22;6757;52.258;12.840;2022-10-31T07:21:49;8.40;99.90
7461;DHT22;6757;52.258;12.840;2022-10-31T07:24:16;8.40;99.90
7461;DHT22;6757;52.258;12.840;2022-10-31T07:26:43;8.50;99.90
7461;DHT22;6757;52.258;12.840;2022-10-31T07:29:11;8.50;99.90
7461;DHT22;6757;52.258;12.840;2022-10-31T07:31:39;8.50;99.90
7461;DHT22;6757;52.258;12.840;2022-10-31T07:34:06;8.60;99.90
7461;DHT22;6757;52.258;12.840;2022-10-31T07:36:33;8.60;99.90
7461;DHT22;6757;52.258;12.840;2022-10-31T07:39:00;8.60;99.90
7461;DHT22;6757;52.258;12.840;2022-10-31T07:41:27;8.70;99.90
7461;DHT22;6757;52.258;12.840;2022-10-31T07:43:54;8.70;99.90
7461;DHT22;6757;52.258;12.840;2022-10-31T07:46:22;8.70;99.90
7461;DHT22;6757;52.258;12.840;2022-10-31T07:48:50;8.80;99.90
7461;DHT22;6757;52.258;12.840;2022-10-31T07:51:17;8.80;99.90
7461;DHT22;6757;52.258;12.840;2022-10-31T07:53:44;8.80;99.90
7461;DHT22;6757;52.258;12.840;2022-10-31T07:56:11;8.90;99.90
7461;DHT22;6757;52.258;12.840;2022-10-31T07:58:38;9.00;99.90
7461;DHT22;6757;52.258;12.840;2022-10-31T08:01:05;9.00;99.90
7461;DHT22;6757;52.258;12.840;2022-10-31T08:03:32;9.00;99.90
7461;DHT22;6757;52.258;12.840;2022-10-31T08:06:00;9.00;99.90
7461;DHT22;6757;52.258;12.840;2022-10-31T08:08:28;9.10;99.90
7461;DHT22;6757;52.258;12.840;2022-10-31T08:10:55;9.10;99.90
7461;DHT22;6757;52.258;12.840;2022-10-31T08:13:24;9.20;99.90
7461;DHT22;6757;52.258;12.840;2022-10-31T08:15:51;9.30;99.90
7461;DHT22;6757;52.258;12.840;2022-10-31T08:18:19;9.30;99.90
7461;DHT22;6757;52.258;12.840;2022-10-31T08:20:47;9.40;99.90
7461;DHT22;6757;52.258;12.840;2022-10-31T08:23:15;9.50;99.90
7461;DHT22;6757;52.258;12.840;2022-10-31T08:25:42;9.60;99.90
7461;DHT22;6757;52.258;12.840;2022-10-31T08:28:10;10.60;99.90
7461;DHT22;6757;52.258;12.840;2022-10-31T08:30:38;9.90;99.90
7461;DHT22;6757;52.258;12.840;2022-10-31T08:33:08;10.00;99.90
7461;DHT22;6757;52.258;12.840;2022-10-31T08:35:36;10.10;99.90
7461;DHT22;6757;52.258;12.840;2022-10-31T08:38:03;10.20;99.90
7461;DHT22;6757;52.258;12.840;2022-10-31T08:40:32;10.30;99.90
7461;DHT22;6757;52.258;12.840;2022-10-31T08:43:02;10.50;99.90
7461;DHT22;6757;52.258;12.840;2022-10-31T08:45:31;10.60;99.90
7461;DHT22;6757;52.258;12.840;2022-10-31T08:47:59;10.70;99.90
7461;DHT22;6757;52.258;12.840;2022-10-31T08:50:27;10.90;99.90
7461;DHT22;6757;52.258;12.840;2022-10-31T08:53:00;11.00;99.90
7461;DHT22;6757;52.258;12.840;2022-10-31T08:55:27;11.10;99.90
7461;DHT22;6757;52.258;12.840;2022-10-31T08:57:56;11.30;99.90
7461;DHT22;6757;52.258;12.840;2022-10-31T09:00:24;11.40;99.90
7461;DHT22;6757;52.258;12.840;2022-10-31T09:02:55;11.60;99.90
7461;DHT22;6757;52.258;12.840;2022-10-31T09:05:24;11.70;99.90
7461;DHT22;6757;52.258;12.840;2022-10-31T09:07:51;11.90;99.90
7461;DHT22;6757;52.258;12.840;2022-10-31T09:10:19;12.10;99.90
7461;DHT22;6757;52.258;12.840;2022-10-31T09:12:46;12.10;99.90
7461;DHT22;6757;52.258;12.840;2022-10-31T09:15:14;12.30;99.90
7461;DHT22;6757;52.258;12.840;2022-10-31T09:17:46;12.40;99.90
7461;DHT22;6757;52.258;12.840;2022-10-31T09:20:13;12.50;99.90
7461;DHT22;6757;52.258;12.840;2022-10-31T09:22:40;12.70;99.90
7461;DHT22;6757;52.258;12.840;2022-10-31T09:25:08;12.70;99.90
7461;DHT22;6757;52.258;12.840;2022-10-31T09:27:35;12.90;99.90
7461;DHT22;6757;52.258;12.840;2022-10-31T09:30:02;13.00;99.90
7461;DHT22;6757;52.258;12.840;2022-10-31T09:32:30;13.20;99.90
7461;DHT22;6757;52.258;12.840;2022-10-31T09:34:57;13.30;99.90
7461;DHT22;6757;52.258;12.840;2022-10-31T09:37:24;13.50;99.90
7461;DHT22;6757;52.258;12.840;2022-10-31T09:39:51;13.50;99.90
7461;DHT22;6757;52.258;12.840;2022-10-31T09:42:32;13.60;99.90
7461;DHT22;6757;52.258;12.840;2022-10-31T09:45:08;13.70;99.90
7461;DHT22;6757;52.258;12.840;2022-10-31T09:47:49;13.80;99.90
7461;DHT22;6757;52.258;12.840;2022-10-31T09:50:22;13.90;99.90
7461;DHT22;6757;52.258;12.840;2022-10-31T09:52:54;14.00;99.90
7461;DHT22;6757;52.258;12.840;2022-10-31T09:55:30;14.10;99.90
7461;DHT22;6757;52.258;12.840;2022-10-31T09:58:02;14.20;99.90
7461;DHT22;6757;52.258;12.840;2022-10-31T10:00:29;14.30;99.90
7461;DHT22;6757;52.258;12.840;2022-10-31T10:03:05;14.30;99.90
7461;DHT22;6757;52.258;12.840;2022-10-31T10:05:41;14.40;99.90
7461;DHT22;6757;52.258;12.840;2022-10-31T10:08:13;14.60;99.90
7461;DHT22;6757;52.258;12.840;2022-10-31T10:10:49;14.90;99.90
7461;DHT22;6757;52.258;12.840;2022-10-31T10:13:48;15.20;99.90
7461;DHT22;6757;52.258;12.840;2022-10-31T10:16:34;15.60;99.90
7461;DHT22;6757;52.258;12.840;2022-10-31T10:19:19;15.90;99.90
7461;DHT22;6757;52.258;12.840;2022-10-31T10:22:01;16.10;99.90
7461;DHT22;6757;52.258;12.840;2022-10-31T10:24:43;16.20;99.90
7461;DHT22;6757;52.258;12.840;2022-10-31T10:27:22;16.20;99.90
7461;DHT22;6757;52.258;12.840;2022-10-31T10:30:13;16.20;99.90
7461;DHT22;6757;52.258;12.840;2022-10-31T10:32:43;16.20;99.90
7461;DHT22;6757;52.258;12.840;2022-10-31T10:35:21;16.10;99.90
7461;DHT22;6757;52.258;12.840;2022-10-31T10:37:52;16.10;99.90
7461;DHT22;6757;52.258;12.840;2022-10-31T10:40:24;16.10;99.90
7461;DHT22;6757;52.258;12.840;2022-10-31T10:42:59;16.20;99.90
7461;DHT22;6757;52.258;12.840;2022-10-31T10:45:51;16.20;99.90
7461;DHT22;6757;52.258;12.840;2022-10-31T10:48:43;16.30;99.90
7461;DHT22;6757;52.258;12.840;2022-10-31T10:51:21;16.30;99.90
7461;DHT22;6757;52.258;12.840;2022-10-31T10:54:02;16.30;99.90
7461;DHT22;6757;52.258;12.840;2022-10-31T10:56:51;16.30;99.90
7461;DHT22;6757;52.258;12.840;2022-10-31T10:59:25;16.30;99.90
7461;DHT22;6757;52.258;12.840;2022-10-31T11:01:52;16.30;99.90
7461;DHT22;6757;52.258;12.840;2022-10-31T11:04:29;16.40;99.90
7461;DHT22;6757;52.258;12.840;2022-10-31T11:07:04;16.50;99.90
7461;DHT22;6757;52.258;12.840;2022-10-31T11:09:33;16.50;99.90
7461;DHT22;6757;52.258;12.840;2022-10-31T11:12:07;16.60;99.90
7461;DHT22;6757;52.258;12.840;2022-10-31T11:14:42;16.70;99.90
7461;DHT22;6757;52.258;12.840;2022-10-31T11:17:19;16.90;99.90
7461;DHT22;6757;52.258;12.840;2022-10-31T11:20:00;17.00;99.90
7461;DHT22;6757;52.258;12.840;2022-10-31T11:22:32;17.10;99.90
7461;DHT22;6757;52.258;12.840;2022-10-31T11:24:59;17.20;99.90
7461;DHT22;6757;52.258;12.840;2022-10-31T11:27:26;17.30;99.90
7461;DHT22;6757;52.258;12.840;2022-10-31T11:30:06;17.40;99.90
7461;DHT22;6757;52.258;12.840;2022-10-31T11:32:33;17.50;99.90
7461;DHT22;6757;52.258;12.840;2022-10-31T11:35:02;17.60;99.90
7461;DHT22;6757;52.258;12.840;2022-10-31T11:37:42;17.70;99.90
7461;DHT22;6757;52.258;12.840;2022-10-31T11:40:16;17.80;99.90
7461;DHT22;6757;52.258;12.840;2022-10-31T11:42:45;17.80;99.90
7461;DHT22;6757;52.258;12.840;2022-10-31T11:45:16;17.90;99.90
7461;DHT22;6757;52.258;12.840;2022-10-31T11:47:47;17.90;99.90
7461;DHT22;6757;52.258;12.840;2022-10-31T11:50:21;17.90;99.90
7461;DHT22;6757;52.258;12.840;2022-10-31T11:52:51;18.00;99.90
7461;DHT22;6757;52.258;12.840;2022-10-31T11:55:31;18.00;99.90
7461;DHT22;6757;52.258;12.840;2022-10-31T11:57:59;18.00;99.90
7461;DHT22;6757;52.258;12.840;2022-10-31T12:00:28;18.10;99.90
7461;DHT22;6757;52.258;12.840;2022-10-31T12:03:12;18.10;99.90
7461;DHT22;6757;52.258;12.840;2022-10-31T12:05:42;18.20;99.90
7461;DHT22;6757;52.258;12.840;2022-10-31T12:08:13;18.40;99.90
7461;DHT22;6757;52.258;12.840;2022-10-31T12:10:47;18.60;99.90
7461;DHT22;6757;52.258;12.840;2022-10-31T12:13:32;18.90;99.90
7461;DHT22;6757;52.258;12.840;2022-10-31T12:16:06;19.10;99.90
7461;DHT22;6757;52.258;12.840;2022-10-31T12:18:47;19.40;99.90
7461;DHT22;6757;52.258;12.840;2022-10-31T12:21:43;19.60;99.90
7461;DHT22;6757;52.258;12.840;2022-10-31T12:24:27;19.80;99.90
7461;DHT22;6757;52.258;12.840;2022-10-31T12:27:12;20.10;99.90
7461;DHT22;6757;52.258;12.840;2022-10-31T12:29:57;20.40;99.90
7461;DHT22;6757;52.258;12.840;2022-10-31T12:32:38;20.60;99.90
7461;DHT22;6757;52.258;12.840;2022-10-31T12:35:24;20.70;99.90
7461;DHT22;6757;52.258;12.840;2022-10-31T12:38:15;20.80;99.90
7461;DHT22;6757;52.258;12.840;2022-10-31T12:41:02;20.90;99.90
7461;DHT22;6757;52.258;12.840;2022-10-31T12:43:46;21.10;99.90
7461;DHT22;6757;52.258;12.840;2022-10-31T12:46:25;21.20;99.90
7461;DHT22;6757;52.258;12.840;2022-10-31T12:49:22;21.40;99.90
7461;DHT22;6757;52.258;12.840;2022-10-31T12:52:04;21.60;99.90
7461;DHT22;6757;52.258;12.840;2022-10-31T12:54:51;21.90;99.90
7461;DHT22;6757;52.258;12.840;2022-10-31T12:57:31;22.10;99.90
7461;DHT22;6757;52.258;12.840;2022-10-31T13:00:02;22.20;99.90
7461;DHT22;6757;52.258;12.840;2022-10-31T13:02:33;22.30;99.90
7461;DHT22;6757;52.258;12.840;2022-10-31T13:05:13;22.30;99.90
7461;DHT22;6757;52.258;12.840;2022-10-31T13:07:49;22.40;99.90
7461;DHT22;6757;52.258;12.840;2022-10-31T13:10:22;22.40;99.90
7461;DHT22;6757;52.258;12.840;2022-10-31T13:12:54;22.90;99.90
7461;DHT22;6757;52.258;12.840;2022-10-31T13:15:27;22.40;99.90
7461;DHT22;6757;52.258;12.840;2022-10-31T13:17:58;22.30;99.90
7461;DHT22;6757;52.258;12.840;2022-10-31T13:20:29;22.20;99.90
7461;DHT22;6757;52.258;12.840;2022-10-31T13:23:05;22.20;99.90
7461;DHT22;6757;52.258;12.840;2022-10-31T13:25:47;22.10;99.90
7461;DHT22;6757;52.258;12.840;2022-10-31T13:28:25;21.90;99.90
7461;DHT22;6757;52.258;12.840;2022-10-31T13:30:55;21.60;99.90
7461;DHT22;6757;52.258;12.840;2022-10-31T13:33:25;21.40;99.90
7461;DHT22;6757;52.258;12.840;2022-10-31T13:36:03;21.20;99.90
7461;DHT22;6757;52.258;12.840;2022-10-31T13:38:38;21.10;99.90
7461;DHT22;6757;52.258;12.840;2022-10-31T13:41:16;20.90;99.90
7461;DHT22;6757;52.258;12.840;2022-10-31T13:44:01;20.70;99.90
7461;DHT22;6757;52.258;12.840;2022-10-31T13:46:38;20.50;99.90
7461;DHT22;6757;52.258;12.840;2022-10-31T13:49:24;20.30;99.90
7461;DHT22;6757;52.258;12.840;2022-10-31T13:51:52;20.00;99.90
7461;DHT22;6757;52.258;12.840;2022-10-31T13:54:21;19.80;99.90
7461;DHT22;6757;52.258;12.840;2022-10-31T13:56:51;19.50;99.90
7461;DHT22;6757;52.258;12.840;2022-10-31T13:59:22;19.20;99.90
7461;DHT22;6757;52.258;12.840;2022-10-31T14:01:52;18.90;99.90
7461;DHT22;6757;52.258;12.840;2022-10-31T14:04:22;18.70;99.90
7461;DHT22;6757;52.258;12.840;2022-10-31T14:06:55;18.50;99.90
7461;DHT22;6757;52.258;12.840;2022-10-31T14:09:30;18.20;99.90
7461;DHT22;6757;52.258;12.840;2022-10-31T14:12:02;17.90;99.90
7461;DHT22;6757;52.258;12.840;2022-10-31T14:14:44;17.70;99.90
7461;DHT22;6757;52.258;12.840;2022-10-31T14:17:19;17.50;99.90
7461;DHT22;6757;52.258;12.840;2022-10-31T14:20:00;17.20;99.90
7461;DHT22;6757;52.258;12.840;2022-10-31T14:22:46;17.00;99.90
7461;DHT22;6757;52.258;12.840;2022-10-31T14:25:29;16.90;99.90
7461;DHT22;6757;52.258;12.840;2022-10-31T14:27:58;16.70;99.90
7461;DHT22;6757;52.258;12.840;2022-10-31T14:30:29;16.60;99.90
7461;DHT22;6757;52.258;12.840;2022-10-31T14:32:58;16.40;99.90
7461;DHT22;6757;52.258;12.840;2022-10-31T14:35:37;16.30;99.90
7461;DHT22;6757;52.258;12.840;2022-10-31T14:38:34;16.20;99.90
7461;DHT22;6757;52.258;12.840;2022-10-31T14:44:43;15.90;99.90
7461;DHT22;6757;52.258;12.840;2022-10-31T14:47:24;15.70;99.90
7461;DHT22;6757;52.258;12.840;2022-10-31T14:50:24;15.60;99.90
7461;DHT22;6757;52.258;12.840;2022-10-31T14:52:58;15.50;99.90
7461;DHT22;6757;52.258;12.840;2022-10-31T14:55:27;15.50;99.90
7461;DHT22;6757;52.258;12.840;2022-10-31T14:57:57;15.40;99.90
7461;DHT22;6757;52.258;12.840;2022-10-31T15:00:27;15.40;99.90
7461;DHT22;6757;52.258;12.840;2022-10-31T15:03:12;15.30;99.90
7461;DHT22;6757;52.258;12.840;2022-10-31T15:05:44;15.30;99.90
7461;DHT22;6757;52.258;12.840;2022-10-31T15:08:25;15.20;99.90
7461;DHT22;6757;52.258;12.840;2022-10-31T15:10:53;15.10;99.90
7461;DHT22;6757;52.258;12.840;2022-10-31T15:13:22;15.10;99.90
7461;DHT22;6757;52.258;12.840;2022-10-31T15:15:50;15.00;99.90
7461;DHT22;6757;52.258;12.840;2022-10-31T15:18:23;15.00;99.90
7461;DHT22;6757;52.258;12.840;2022-10-31T15:20:52;15.00;99.90
7461;DHT22;6757;52.258;12.840;2022-10-31T15:23:23;14.90;99.90
7461;DHT22;6757;52.258;12.840;2022-10-31T15:25:58;14.80;99.90
7461;DHT22;6757;52.258;12.840;2022-10-31T15:28:26;14.80;99.90
7461;DHT22;6757;52.258;12.840;2022-10-31T15:30:54;14.80;99.90
7461;DHT22;6757;52.258;12.840;2022-10-31T15:33:26;14.70;99.90
7461;DHT22;6757;52.258;12.840;2022-10-31T15:35:58;14.60;99.90
7461;DHT22;6757;52.258;12.840;2022-10-31T15:38:27;14.60;99.90
7461;DHT22;6757;52.258;12.840;2022-10-31T15:40:56;14.60;99.90
7461;DHT22;6757;52.258;12.840;2022-10-31T15:43:27;14.50;99.90
7461;DHT22;6757;52.258;12.840;2022-10-31T15:45:54;14.50;99.90
7461;DHT22;6757;52.258;12.840;2022-10-31T15:48:24;14.40;99.90
7461;DHT22;6757;52.258;12.840;2022-10-31T15:50:57;14.40;99.90
7461;DHT22;6757;52.258;12.840;2022-10-31T15:53:27;14.40;99.90
7461;DHT22;6757;52.258;12.840;2022-10-31T15:56:03;14.40;99.90
7461;DHT22;6757;52.258;12.840;2022-10-31T15:58:31;14.30;99.90
7461;DHT22;6757;52.258;12.840;2022-10-31T16:01:00;14.30;99.90
7461;DHT22;6757;52.258;12.840;2022-10-31T16:03:31;14.30;99.90
7461;DHT22;6757;52.258;12.840;2022-10-31T16:06:00;14.30;99.90
7461;DHT22;6757;52.258;12.840;2022-10-31T16:08:33;14.20;99.90
7461;DHT22;6757;52.258;12.840;2022-10-31T16:11:15;14.20;99.90
7461;DHT22;6757;52.258;12.840;2022-10-31T16:13:54;14.20;99.90
7461;DHT22;6757;52.258;12.840;2022-10-31T16:16:23;14.10;99.90
7461;DHT22;6757;52.258;12.840;2022-10-31T16:18:53;14.10;99.90
7461;DHT22;6757;52.258;12.840;2022-10-31T16:21:29;14.10;99.90
7461;DHT22;6757;52.258;12.840;2022-10-31T16:24:02;14.00;99.90
7461;DHT22;6757;52.258;12.840;2022-10-31T16:26:31;14.00;99.90
7461;DHT22;6757;52.258;12.840;2022-10-31T16:28:58;13.90;99.90